Time;durP1;ratioP1;P1;durP2;ratioP2;P2;SDS_P1;SDS_P2;PMS_P1;PMS_P2;Temp;Humidity;BMP_temperature;BMP_pressure;BME280_temperature;BME280_humidity;BME280_pressure;Samples;Min_cycle;Max_cycle;Signal;HPM_P1;HPM_P2
2021/08/02 00:01:10;;;;;;;3.90;3.50;;;15.80;1.00;;;;;;5070790;28;20549;-73
2021/08/02 00:03:46;;;;;;;3.73;2.87;;;15.70;1.00;;;;;;5070666;28;20521;-74
2021/08/02 00:06:22;;;;;;;4.73;3.60;;;15.60;1.00;;;;;;5069443;28;20422;-75
2021/08/02 00:08:57;;;;;;;4.43;3.80;;;15.50;99.90;;;;;;5070122;28;20515;-72
2021/08/02 00:11:33;;;;;;;3.40;3.00;;;15.40;1.00;;;;;;5070062;28;20438;-72
2021/08/02 00:14:06;;;;;;;4.70;4.23;;;15.50;1.00;;;;;;5069912;28;20509;-73
2021/08/02 00:16:36;;;;;;;3.47;3.03;;;15.60;1.00;;;;;;5053674;28;20416;-72
2021/08/02 00:19:07;;;;;;;4.40;3.30;;;15.50;1.00;;;;;;5071666;28;20764;-73
2021/08/02 00:21:36;;;;;;;3.60;3.30;;;15.50;99.90;;;;;;5054528;28;21005;-74
2021/08/02 00:24:05;;;;;;;4.13;3.47;;;15.30;99.90;;;;;;5054430;28;20438;-72
2021/08/02 00:26:33;;;;;;;3.90;3.03;;;15.30;1.00;;;;;;5051866;28;20443;-75
2021/08/02 00:29:02;;;;;;;4.37;3.60;;;15.30;1.00;;;;;;5071545;28;20470;-74
2021/08/02 00:31:32;;;;;;;6.83;3.67;;;15.40;99.90;;;;;;5073730;28;20521;-71
2021/08/02 00:34:00;;;;;;;3.50;3.00;;;15.40;99.90;;;;;;5071169;28;20430;-73
2021/08/02 00:36:36;;;;;;;3.50;3.20;;;15.40;99.90;;;;;;5055411;28;20442;-73
2021/08/02 00:39:07;;;;;;;3.33;3.00;;;15.40;99.90;;;;;;5073661;28;20418;-74
2021/08/02 00:42:14;;;;;;;5.60;3.50;;;15.50;1.00;;;;;;5075204;28;20438;-70
2021/08/02 00:45:08;;;;;;;5.37;4.10;;;15.60;1.00;;;;;;5062347;28;20965;-74
2021/08/02 00:47:44;;;;;;;4.43;3.43;;;15.80;99.90;;;;;;5052052;28;20964;-72
2021/08/02 00:50:16;;;;;;;4.20;3.00;;;15.80;99.90;;;;;;5069322;28;20419;-72
2021/08/02 00:52:50;;;;;;;4.37;3.80;;;15.80;99.90;;;;;;5069865;28;20414;-72
2021/08/02 00:55:20;;;;;;;4.43;4.03;;;15.70;99.90;;;;;;5050867;28;20427;-72
2021/08/02 00:57:55;;;;;;;4.10;3.70;;;15.80;99.90;;;;;;5068145;28;20431;-70
2021/08/02 01:00:24;;;;;;;6.50;4.40;;;15.80;1.00;;;;;;5069038;28;20498;-72
2021/08/02 01:02:58;;;;;;;4.87;4.20;;;15.70;74.20;;;;;;5069096;28;20806;-74
2021/08/02 01:05:26;;;;;;;4.27;3.23;;;15.80;99.90;;;;;;5068414;28;20417;-72
2021/08/02 01:07:59;;;;;;;4.63;4.03;;;15.70;99.90;;;;;;5068713;28;20505;-71
2021/08/02 01:10:32;;;;;;;4.70;3.80;;;15.70;99.90;;;;;;5050998;28;20490;-71
2021/08/02 01:13:06;;;;;;;3.80;3.20;;;15.60;99.90;;;;;;5069211;28;20392;-72
2021/08/02 01:15:36;;;;;;;4.83;3.93;;;15.50;1.00;;;;;;5050804;28;20413;-71
2021/08/02 01:18:07;;;;;;;4.90;3.47;;;15.60;99.90;;;;;;5072409;28;20422;-70
2021/08/02 01:20:42;;;;;;;5.07;3.90;;;15.50;1.00;;;;;;5072147;28;20462;-71
2021/08/02 01:23:16;;;;;;;4.33;3.93;;;15.60;99.90;;;;;;5082088;28;20417;-71
2021/08/02 01:26:15;;;;;;;4.97;3.70;;;15.80;1.00;;;;;;5076826;28;20430;-71
2021/08/02 01:29:21;;;;;;;4.63;4.20;;;16.10;1.00;;;;;;5077347;28;20437;-71
2021/08/02 01:31:49;;;;;;;4.53;3.53;;;16.20;1.00;;;;;;5078287;28;20514;-71
2021/08/02 01:34:21;;;;;;;4.80;3.50;;;16.30;99.90;;;;;;5056616;28;20481;-74
2021/08/02 01:36:49;;;;;;;4.43;3.70;;;16.00;1.00;;;;;;5074677;28;20422;-72
2021/08/02 01:39:21;;;;;;;5.73;3.27;;;15.90;1.00;;;;;;5075936;28;20837;-72
2021/08/02 01:41:50;;;;;;;4.00;3.13;;;16.20;1.00;;;;;;5055353;28;20457;-71
2021/08/02 01:44:18;;;;;;;3.70;3.00;;;16.30;99.90;;;;;;5071888;28;20472;-71
2021/08/02 01:46:59;;;;;;;3.80;3.10;;;16.40;99.90;;;;;;5071687;28;20472;-71
2021/08/02 01:49:35;;;;;;;3.47;3.17;;;16.50;99.90;;;;;;5071577;28;20424;-72
2021/08/02 01:52:06;;;;;;;3.10;2.80;;;16.40;99.90;;;;;;5071743;28;20438;-71
2021/08/02 01:54:44;;;;;;;3.33;3.03;;;16.10;99.90;;;;;;5072003;28;20457;-71
2021/08/02 01:57:19;;;;;;;3.90;3.60;;;16.20;99.90;;;;;;5072466;28;20396;-71
2021/08/02 02:00:08;;;;;;;6.90;3.90;;;16.20;99.90;;;;;;5071435;28;20402;-71
2021/08/02 02:02:53;;;;;;;3.43;3.13;;;16.30;99.90;;;;;;5072399;28;20406;-74
2021/08/02 02:05:29;;;;;;;3.47;2.73;;;16.40;99.90;;;;;;5071180;28;20430;-71
2021/08/02 02:08:05;;;;;;;3.27;2.97;;;16.30;99.90;;;;;;5053113;28;20955;-71
2021/08/02 02:10:41;;;;;;;3.50;3.13;;;16.20;99.90;;;;;;5069715;28;20481;-72
2021/08/02 02:13:15;;;;;;;3.33;3.03;;;16.00;99.90;;;;;;5071514;28;20413;-72
2021/08/02 02:15:48;;;;;;;4.23;3.17;;;15.80;99.90;;;;;;5053048;28;20496;-72
2021/08/02 02:18:18;;;;;;;3.63;2.93;;;15.90;99.90;;;;;;5071204;28;20419;-71
2021/08/02 02:20:50;;;;;;;4.20;3.80;;;15.90;99.90;;;;;;5071009;28;20434;-74
2021/08/02 02:23:22;;;;;;;4.90;3.43;;;16.00;99.90;;;;;;5052898;28;20446;-71
2021/08/02 02:25:53;;;;;;;5.77;2.57;;;15.90;99.90;;;;;;5052567;28;20437;-72
2021/08/02 02:28:23;;;;;;;3.50;3.20;;;15.80;99.90;;;;;;5069954;28;20395;-72
2021/08/02 02:31:02;;;;;;;2.40;2.20;;;15.80;99.90;;;;;;5052573;28;20531;-71
2021/08/02 02:33:33;;;;;;;3.17;2.60;;;15.90;99.90;;;;;;5052943;28;20531;-71
2021/08/02 02:36:04;;;;;;;3.20;2.83;;;15.80;99.90;;;;;;5052764;28;20444;-72
2021/08/02 02:38:34;;;;;;;4.27;3.00;;;15.70;99.90;;;;;;5070799;28;20402;-71
2021/08/02 02:41:05;;;;;;;4.13;2.73;;;15.60;99.90;;;;;;5071178;28;20442;-71
2021/08/02 02:43:40;;;;;;;4.13;2.60;;;15.60;99.90;;;;;;5052968;28;20441;-71
2021/08/02 02:46:09;;;;;;;3.30;3.00;;;15.60;99.90;;;;;;5052458;28;20829;-69
2021/08/02 02:48:38;;;;;;;3.83;3.43;;;15.50;99.90;;;;;;5069318;28;20842;-73
2021/08/02 02:51:08;;;;;;;3.50;2.53;;;15.40;99.90;;;;;;5052125;28;20535;-70
2021/08/02 02:53:36;;;;;;;3.80;2.50;;;15.40;99.90;;;;;;5070711;28;20429;-69
2021/08/02 02:56:08;;;;;;;3.63;2.93;;;15.40;99.90;;;;;;5052331;28;20442;-71
2021/08/02 02:58:39;;;;;;;3.63;3.33;;;15.40;99.90;;;;;;5070762;28;20955;-72
2021/08/02 03:01:10;;;;;;;3.10;2.80;;;15.60;99.90;;;;;;5070684;28;20492;-70
2021/08/02 03:03:45;;;;;;;4.03;2.77;;;15.70;99.90;;;;;;5070699;28;20447;-70
2021/08/02 03:06:16;;;;;;;2.60;2.40;;;15.70;99.90;;;;;;5052145;28;20452;-70
2021/08/02 03:08:46;;;;;;;8.40;2.93;;;15.60;99.90;;;;;;5070794;28;20463;-72
2021/08/02 03:11:20;;;;;;;3.57;2.50;;;15.50;99.90;;;;;;5052456;28;20452;-71
2021/08/02 03:13:50;;;;;;;5.10;3.87;;;15.50;99.90;;;;;;5071124;28;20382;-70
2021/08/02 03:16:19;;;;;;;4.90;2.90;;;15.50;99.90;;;;;;5069535;28;20933;-70
2021/08/02 03:18:48;;;;;;;3.40;3.10;;;15.50;99.90;;;;;;5070451;28;20369;-69
2021/08/02 03:21:17;;;;;;;8.83;3.43;;;15.30;1.00;;;;;;5069808;28;20433;-70
2021/08/02 03:23:54;;;;;;;6.57;3.90;;;15.20;1.00;;;;;;5070279;28;20422;-71
2021/08/02 03:26:29;;;;;;;4.43;3.50;;;15.10;50.50;;;;;;5069813;28;20420;-71
2021/08/02 03:29:01;;;;;;;3.83;2.97;;;15.00;1.00;;;;;;5070109;28;20438;-71
2021/08/02 03:31:43;;;;;;;4.47;3.63;;;14.80;1.00;;;;;;5069981;28;20955;-72
2021/08/02 03:34:15;;;;;;;4.90;4.03;;;14.70;1.00;;;;;;5069768;28;20894;-73
2021/08/02 03:36:44;;;;;;;3.40;3.03;;;14.60;99.90;;;;;;5069535;28;20884;-72
2021/08/02 03:39:15;;;;;;;4.53;2.97;;;14.50;99.90;;;;;;5069814;28;20385;-70
2021/08/02 03:41:45;;;;;;;6.10;3.00;;;14.40;1.00;;;;;;5069697;28;20493;-71
2021/08/02 03:44:14;;;;;;;3.47;3.17;;;14.80;99.90;;;;;;5069768;28;20439;-75
2021/08/02 03:46:43;;;;;;;2.97;2.60;;;15.20;99.90;;;;;;5069358;28;20390;-71
2021/08/02 03:49:11;;;;;;;3.57;2.80;;;15.40;1.00;;;;;;5051614;28;20919;-70
2021/08/02 03:51:50;;;;;;;3.07;2.77;;;15.50;46.00;;;;;;5069440;28;20477;-74
2021/08/02 03:54:19;;;;;;;3.77;2.63;;;15.90;1.00;;;;;;5069757;28;20475;-70
2021/08/02 03:56:49;;;;;;;4.87;3.13;;;16.00;99.90;;;;;;5069277;28;20460;-71
2021/08/02 03:59:17;;;;;;;4.40;3.60;;;16.20;99.90;;;;;;5069372;28;20410;-71
2021/08/02 04:01:47;;;;;;;3.70;2.37;;;16.30;99.90;;;;;;5069514;28;20503;-71
2021/08/02 04:04:16;;;;;;;4.60;3.27;;;16.40;99.90;;;;;;5069227;28;20441;-74
2021/08/02 04:06:44;;;;;;;3.17;2.77;;;16.30;99.90;;;;;;5069271;28;20403;-73
2021/08/02 04:09:14;;;;;;;2.63;2.43;;;16.30;99.90;;;;;;5069349;28;20753;-72
2021/08/02 04:11:45;;;;;;;3.27;2.77;;;16.20;99.90;;;;;;5069194;28;20527;-75
2021/08/02 04:14:14;;;;;;;3.13;2.10;;;16.20;99.90;;;;;;5051163;28;20504;-71
2021/08/02 04:16:44;;;;;;;3.47;3.10;;;16.10;99.90;;;;;;5069070;28;20401;-71
2021/08/02 04:19:12;;;;;;;3.93;2.57;;;16.30;99.90;;;;;;5068969;28;20433;-74
2021/08/02 04:21:41;;;;;;;4.07;2.20;;;16.00;99.90;;;;;;5069371;28;20448;-71
2021/08/02 04:24:09;;;;;;;4.63;2.93;;;16.10;99.90;;;;;;5069177;28;20750;-71
2021/08/02 04:26:37;;;;;;;5.50;2.70;;;16.20;99.90;;;;;;5068803;28;20401;-71
2021/08/02 04:29:05;;;;;;;4.97;2.97;;;16.30;99.90;;;;;;5069037;28;20422;-71
2021/08/02 04:31:35;;;;;;;3.37;2.37;;;16.30;99.90;;;;;;5068655;28;20520;-71
2021/08/02 04:34:04;;;;;;;1.97;1.83;;;16.20;99.90;;;;;;5069473;28;20572;-71
2021/08/02 04:36:32;;;;;;;3.53;3.20;;;16.10;99.90;;;;;;5068719;28;20469;-71
2021/08/02 04:39:00;;;;;;;3.00;1.87;;;16.00;99.90;;;;;;5068938;28;21003;-74
2021/08/02 04:41:29;;;;;;;5.00;2.73;;;15.90;99.90;;;;;;5068925;28;20442;-73
2021/08/02 04:43:57;;;;;;;2.50;2.00;;;15.90;99.90;;;;;;5069626;28;20437;-72
2021/08/02 04:46:25;;;;;;;6.50;2.60;;;16.00;99.90;;;;;;5073096;28;20425;-71
2021/08/02 04:48:55;;;;;;;2.10;1.90;;;16.10;99.90;;;;;;5073795;28;20388;-72
2021/08/02 04:51:23;;;;;;;3.20;2.13;;;16.30;99.90;;;;;;5073943;28;20468;-74
2021/08/02 04:53:51;;;;;;;3.30;2.07;;;16.50;99.90;;;;;;5076264;28;20509;-74
2021/08/02 04:56:19;;;;;;;3.80;2.53;;;16.70;99.90;;;;;;5055245;28;20474;-72
2021/08/02 04:58:47;;;;;;;3.10;2.33;;;16.80;99.90;;;;;;5072561;28;20456;-71
2021/08/02 05:01:16;;;;;;;2.40;2.20;;;16.90;99.90;;;;;;5072579;28;20409;-71
2021/08/02 05:03:44;;;;;;;4.40;2.07;;;16.70;99.90;;;;;;5072252;28;20430;-71
2021/08/02 05:06:14;;;;;;;2.43;2.00;;;16.60;99.90;;;;;;5054478;28;20434;-71
2021/08/02 05:08:42;;;;;;;2.23;1.80;;;16.80;99.90;;;;;;5072609;28;20502;-71
2021/08/02 05:11:10;;;;;;;4.00;2.37;;;18.30;99.90;;;;;;5072415;28;20436;-70
2021/08/02 05:13:39;;;;;;;5.53;2.90;;;20.50;77.20;;;;;;5072384;28;20428;-71
2021/08/02 05:16:08;;;;;;;6.70;1.70;;;22.30;54.70;;;;;;5072292;28;20390;-70
2021/08/02 05:18:36;;;;;;;2.10;1.70;;;23.80;41.20;;;;;;5072224;28;20816;-70
2021/08/02 05:21:07;;;;;;;2.83;2.60;;;24.80;33.60;;;;;;5072565;28;20478;-70
2021/08/02 05:23:37;;;;;;;2.37;2.17;;;25.80;27.40;;;;;;5054193;28;20430;-72
2021/08/02 05:26:05;;;;;;;2.37;1.97;;;25.40;23.90;;;;;;5071962;28;20418;-71
2021/08/02 05:28:33;;;;;;;2.57;2.13;;;25.40;21.60;;;;;;5072253;28;20408;-71
2021/08/02 05:31:01;;;;;;;2.73;2.03;;;23.80;15.50;;;;;;5072254;28;20461;-72
2021/08/02 05:33:30;;;;;;;2.53;2.00;;;22.90;14.00;;;;;;5072081;28;20763;-70
2021/08/02 05:36:03;;;;;;;3.00;1.87;;;21.40;15.40;;;;;;5072376;28;20419;-70
2021/08/02 05:38:31;;;;;;;2.60;1.97;;;20.20;21.70;;;;;;5072706;28;20397;-69
2021/08/02 05:41:01;;;;;;;3.60;1.80;;;19.20;37.80;;;;;;5072748;28;21145;-70
2021/08/02 05:43:29;;;;;;;2.77;2.40;;;18.60;34.60;;;;;;5072631;28;20479;-70
2021/08/02 05:45:58;;;;;;;4.03;2.93;;;18.00;39.40;;;;;;5072373;28;20408;-71
2021/08/02 05:48:26;;;;;;;3.90;2.00;;;17.60;50.10;;;;;;5071548;28;20737;-72
2021/08/02 05:50:54;;;;;;;2.43;2.20;;;17.50;57.40;;;;;;5093138;22;20493;-83
2021/08/02 05:53:22;;;;;;;6.03;2.30;;;17.80;65.20;;;;;;5064562;28;20397;-84
2021/08/02 05:55:51;;;;;;;2.90;2.47;;;18.10;58.40;;;;;;5080824;28;20390;-85
2021/08/02 05:58:20;;;;;;;2.70;2.13;;;18.40;55.30;;;;;;5080891;28;20410;-85
2021/08/02 06:00:48;;;;;;;3.67;3.37;;;18.60;47.00;;;;;;5081510;28;20446;-85
2021/08/02 06:03:16;;;;;;;1.93;1.73;;;18.50;44.20;;;;;;5080726;28;20775;-84
2021/08/02 06:05:45;;;;;;;2.63;2.10;;;18.40;40.80;;;;;;5088443;28;20422;-86
2021/08/02 06:08:13;;;;;;;3.60;2.00;;;18.40;43.80;;;;;;5097035;28;20428;-84
2021/08/02 06:10:41;;;;;;;4.90;2.30;;;18.30;41.90;;;;;;5090511;28;20927;-85
2021/08/02 06:13:09;;;;;;;3.83;2.90;;;18.20;37.70;;;;;;5082144;28;20426;-86
2021/08/02 06:15:39;;;;;;;3.37;1.73;;;18.40;39.30;;;;;;5087843;28;20393;-83
2021/08/02 06:18:07;;;;;;;3.00;2.50;;;18.00;36.90;;;;;;5088619;28;20517;-85
2021/08/02 06:20:35;;;;;;;4.00;2.17;;;18.20;42.00;;;;;;5089382;28;20445;-84
2021/08/02 06:23:04;;;;;;;2.33;1.83;;;18.50;37.50;;;;;;5090541;28;20429;-82
2021/08/02 06:25:32;;;;;;;3.37;2.77;;;18.50;33.50;;;;;;5071084;28;20836;-83
2021/08/02 06:28:00;;;;;;;3.13;1.70;;;18.20;31.70;;;;;;5088645;28;20398;-85
2021/08/02 06:30:28;;;;;;;3.40;3.00;;;17.80;36.40;;;;;;5090279;28;20449;-84
2021/08/02 06:32:57;;;;;;;4.00;2.03;;;17.50;36.50;;;;;;5089722;28;20466;-84
2021/08/02 06:35:27;;;;;;;3.80;2.07;;;17.40;39.80;;;;;;5089420;28;20401;-84
2021/08/02 06:37:55;;;;;;;2.50;1.93;;;17.40;44.00;;;;;;5089358;28;20439;-84
2021/08/02 06:40:23;;;;;;;3.30;2.40;;;17.60;43.50;;;;;;5088907;28;20830;-85
2021/08/02 06:42:51;;;;;;;2.63;2.37;;;17.50;38.60;;;;;;5087170;28;20422;-87
2021/08/02 06:45:20;;;;;;;2.77;2.00;;;17.90;38.90;;;;;;5086999;28;20429;-85
2021/08/02 06:47:48;;;;;;;2.30;1.90;;;18.20;37.20;;;;;;5088554;28;20430;-85
2021/08/02 06:50:18;;;;;;;3.03;1.83;;;18.30;34.70;;;;;;5069313;28;20433;-83
2021/08/02 06:52:50;;;;;;;2.20;1.70;;;18.50;28.10;;;;;;5070670;28;20545;-82
2021/08/02 06:55:18;;;;;;;1.97;1.40;;;18.20;27.70;;;;;;5086890;28;20397;-84
2021/08/02 06:57:47;;;;;;;4.43;1.40;;;17.90;25.10;;;;;;5085258;28;20401;-83
2021/08/02 07:00:16;;;;;;;3.00;1.83;;;17.70;24.60;;;;;;5081349;28;20451;-84
2021/08/02 07:02:44;;;;;;;6.30;2.17;;;17.50;25.00;;;;;;5082278;28;20433;-83
2021/08/02 07:05:13;;;;;;;2.13;1.70;;;17.60;25.60;;;;;;5083655;28;20803;-83
2021/08/02 07:07:43;;;;;;;2.80;1.10;;;17.80;20.70;;;;;;5088068;28;20522;-82
2021/08/02 07:10:12;;;;;;;3.43;1.83;;;17.80;17.10;;;;;;5086562;28;20446;-84
2021/08/02 07:12:40;;;;;;;2.57;1.70;;;17.90;15.60;;;;;;5089337;28;20521;-83
2021/08/02 07:15:10;;;;;;;2.57;1.43;;;18.10;17.30;;;;;;5090990;28;20430;-83
2021/08/02 07:17:38;;;;;;;3.37;1.30;;;18.40;13.20;;;;;;5095798;28;20372;-84
2021/08/02 07:20:07;;;;;;;2.87;1.27;;;18.60;10.90;;;;;;5083985;28;20480;-85
2021/08/02 07:22:35;;;;;;;4.70;2.07;;;18.90;8.80;;;;;;5063725;28;20457;-84
2021/08/02 07:25:07;;;;;;;2.17;1.40;;;18.80;6.60;;;;;;5080888;28;20514;-85
2021/08/02 07:27:35;;;;;;;1.77;1.67;;;18.80;8.10;;;;;;5082102;28;20476;-85
2021/08/02 07:30:03;;;;;;;3.40;3.20;;;18.80;6.60;;;;;;5084523;28;20548;-84
2021/08/02 07:32:31;;;;;;;1.27;1.10;;;18.50;7.50;;;;;;5066258;28;20444;-84
2021/08/02 07:35:00;;;;;;;2.10;1.47;;;18.30;8.50;;;;;;5085026;28;20441;-84
2021/08/02 07:37:28;;;;;;;5.73;2.00;;;18.00;8.80;;;;;;5069619;28;20430;-83
2021/08/02 07:39:57;;;;;;;5.37;1.83;;;18.00;10.90;;;;;;5067719;28;20889;-84
2021/08/02 07:42:26;;;;;;;3.87;2.07;;;18.20;8.50;;;;;;5085533;28;20401;-84
2021/08/02 07:44:55;;;;;;;2.50;1.37;;;18.50;7.80;;;;;;5069053;28;20923;-83
2021/08/02 07:47:23;;;;;;;2.70;1.30;;;18.90;4.00;;;;;;5088345;28;20416;-85
2021/08/02 07:49:51;;;;;;;4.00;2.13;;;19.00;8.50;;;;;;5086881;28;20434;-84
2021/08/02 07:52:19;;;;;;;1.77;1.17;;;19.10;1.00;;;;;;5086143;28;20445;-84
2021/08/02 07:54:48;;;;;;;1.30;0.90;;;19.10;1.00;;;;;;5085789;28;20398;-84
2021/08/02 07:57:16;;;;;;;2.43;1.53;;;19.10;1.00;;;;;;5085409;28;20411;-83
2021/08/02 07:59:45;;;;;;;1.77;1.10;;;19.10;1.00;;;;;;5083659;28;20416;-84
2021/08/02 08:02:13;;;;;;;3.37;1.47;;;19.50;1.00;;;;;;5081788;28;20414;-83
2021/08/02 08:04:42;;;;;;;1.83;1.10;;;19.70;1.00;;;;;;5082933;28;20429;-84
2021/08/02 08:07:11;;;;;;;1.83;1.07;;;19.70;1.00;;;;;;5080613;28;20407;-82
2021/08/02 08:09:39;;;;;;;1.53;1.10;;;19.50;1.00;;;;;;5082775;28;20457;-83
2021/08/02 08:12:08;;;;;;;2.13;1.10;;;19.30;1.00;;;;;;5081115;28;20461;-81
2021/08/02 08:14:36;;;;;;;2.07;1.00;;;19.30;1.00;;;;;;5082165;28;20405;-85
2021/08/02 08:17:06;;;;;;;2.33;1.10;;;19.30;1.00;;;;;;5085290;28;20427;-84
2021/08/02 08:19:34;;;;;;;2.40;1.57;;;19.10;1.00;;;;;;5080448;28;20495;-83
2021/08/02 08:22:03;;;;;;;1.53;1.00;;;18.70;1.00;;;;;;5081910;28;20423;-82
2021/08/02 08:24:31;;;;;;;2.00;1.40;;;18.60;1.00;;;;;;5088629;28;20400;-82
2021/08/02 08:27:00;;;;;;;3.70;1.40;;;18.60;1.00;;;;;;5068266;28;20454;-80
2021/08/02 08:29:28;;;;;;;2.40;1.20;;;18.80;1.00;;;;;;5089007;28;20421;-82
2021/08/02 08:31:56;;;;;;;2.20;1.20;;;18.90;1.00;;;;;;5090743;28;20436;-82
2021/08/02 08:34:26;;;;;;;1.17;0.87;;;19.10;1.00;;;;;;5056425;28;20471;-82
2021/08/02 08:36:54;;;;;;;2.77;1.50;;;19.20;1.00;;;;;;5065185;28;20435;-82
2021/08/02 08:39:22;;;;;;;2.60;1.60;;;19.50;1.00;;;;;;5066567;28;20534;-83
2021/08/02 08:41:51;;;;;;;3.73;1.57;;;19.70;1.00;;;;;;5068761;28;20426;-83
2021/08/02 08:44:20;;;;;;;2.50;1.90;;;19.70;1.00;;;;;;5085983;28;20381;-81
2021/08/02 08:46:48;;;;;;;3.80;0.90;;;19.50;1.00;;;;;;5067233;28;20441;-81
2021/08/02 08:49:17;;;;;;;1.50;1.00;;;19.60;1.00;;;;;;5071247;28;20462;-82
2021/08/02 08:51:48;;;;;;;1.60;1.13;;;19.60;1.00;;;;;;5096304;28;20413;-79
2021/08/02 08:54:16;;;;;;;6.27;1.57;;;19.50;1.00;;;;;;5093891;28;20477;-81
2021/08/02 08:56:44;;;;;;;1.57;1.27;;;19.50;1.00;;;;;;5085503;28;20444;-82
2021/08/02 08:59:14;;;;;;;2.87;1.70;;;19.80;1.00;;;;;;5086388;28;20429;-82
2021/08/02 09:01:42;;;;;;;2.40;1.17;;;19.80;1.00;;;;;;5083758;28;20413;-83
2021/08/02 09:04:10;;;;;;;2.13;1.10;;;20.20;1.00;;;;;;5085444;28;20407;-81
2021/08/02 09:06:47;;;;;;;2.30;1.43;;;20.60;1.00;;;;;;5084023;28;20533;-81
2021/08/02 09:09:28;;;;;;;2.13;1.10;;;20.60;1.00;;;;;;5067118;28;21019;-84
2021/08/02 09:12:08;;;;;;;4.50;1.17;;;20.30;1.00;;;;;;5084010;28;20411;-82
2021/08/02 09:14:36;;;;;;;2.07;1.60;;;20.70;1.00;;;;;;5065416;28;20519;-83
2021/08/02 09:17:05;;;;;;;1.93;1.03;;;21.10;1.00;;;;;;5083419;28;20400;-82
2021/08/02 09:19:41;;;;;;;1.50;1.00;;;21.00;1.00;;;;;;5064913;28;20596;-82
2021/08/02 09:22:11;;;;;;;1.87;1.30;;;20.70;1.00;;;;;;5083161;28;20392;-82
2021/08/02 09:24:40;;;;;;;2.10;1.00;;;20.10;1.00;;;;;;5083825;28;20401;-83
2021/08/02 09:27:08;;;;;;;1.80;1.40;;;19.60;1.00;;;;;;5083669;28;20407;-83
2021/08/02 09:29:37;;;;;;;4.60;1.33;;;19.50;1.00;;;;;;5084687;28;20465;-84
2021/08/02 09:32:09;;;;;;;3.77;1.20;;;19.30;1.00;;;;;;5084191;28;20429;-82
2021/08/02 09:34:46;;;;;;;3.00;1.30;;;19.30;1.00;;;;;;5090162;28;20503;-84
2021/08/02 09:37:23;;;;;;;2.63;1.30;;;19.20;1.00;;;;;;5082963;28;20408;-82
2021/08/02 09:39:53;;;;;;;1.77;1.30;;;19.40;1.00;;;;;;5084342;28;20446;-82
2021/08/02 09:42:25;;;;;;;2.30;1.80;;;19.30;1.00;;;;;;5083368;28;20421;-81
2021/08/02 09:45:13;;;;;;;2.70;1.40;;;19.40;1.00;;;;;;5083970;28;20685;-83
2021/08/02 09:47:41;;;;;;;2.00;1.17;;;19.40;1.00;;;;;;5083183;28;20381;-81
2021/08/02 09:50:10;;;;;;;2.33;1.17;;;19.40;1.00;;;;;;5088394;28;20484;-81
2021/08/02 09:52:51;;;;;;;5.50;1.50;;;19.60;1.00;;;;;;5093248;28;20423;-82
2021/08/02 09:55:22;;;;;;;3.13;2.93;;;20.10;1.00;;;;;;5094329;28;20415;-81
2021/08/02 09:57:52;;;;;;;2.60;1.77;;;20.60;1.00;;;;;;5085139;28;20426;-81
2021/08/02 10:00:40;;;;;;;3.40;1.43;;;21.00;1.00;;;;;;5080705;28;20433;-82
2021/08/02 10:03:14;;;;;;;1.50;1.07;;;21.00;1.00;;;;;;5081681;28;20426;-82
2021/08/02 10:05:49;;;;;;;2.80;1.87;;;20.80;1.00;;;;;;5084111;28;20450;-82
2021/08/02 10:08:36;;;;;;;3.73;1.30;;;20.60;1.00;;;;;;5084413;28;20440;-82
2021/08/02 10:11:05;;;;;;;1.50;1.10;;;20.70;1.00;;;;;;5084227;28;20521;-82
2021/08/02 10:13:38;;;;;;;1.90;1.13;;;20.80;1.00;;;;;;5089457;28;20484;-82
2021/08/02 10:16:09;;;;;;;1.87;1.00;;;20.60;1.00;;;;;;5087922;28;20434;-82
2021/08/02 10:18:40;;;;;;;1.63;1.07;;;20.40;1.00;;;;;;5072811;28;20433;-81
2021/08/02 10:21:12;;;;;;;2.60;1.20;;;20.00;1.00;;;;;;5085243;28;20444;-82
2021/08/02 10:23:47;;;;;;;2.27;1.33;;;19.60;1.00;;;;;;5082093;28;20418;-82
2021/08/02 10:26:20;;;;;;;6.13;1.20;;;19.50;1.00;;;;;;5081488;28;20417;-82
2021/08/02 10:28:58;;;;;;;2.73;1.27;;;19.70;1.00;;;;;;5084048;28;21014;-83
2021/08/02 10:31:28;;;;;;;1.70;1.20;;;20.00;1.00;;;;;;5085519;28;20462;-83
2021/08/02 10:34:17;;;;;;;5.07;1.33;;;20.40;1.00;;;;;;5085689;28;20429;-81
2021/08/02 10:36:58;;;;;;;1.57;1.10;;;20.70;1.00;;;;;;5091405;28;20380;-80
2021/08/02 10:39:31;;;;;;;2.33;1.40;;;21.10;1.00;;;;;;5080376;28;20443;-82
2021/08/02 10:42:08;;;;;;;2.00;1.00;;;21.10;1.00;;;;;;5079211;28;20677;-81
2021/08/02 10:45:00;;;;;;;1.50;1.00;;;20.70;1.00;;;;;;5095178;28;20415;-82
2021/08/02 10:47:39;;;;;;;1.43;1.00;;;20.40;1.00;;;;;;5091397;28;20446;-82
2021/08/02 10:50:11;;;;;;;3.67;1.40;;;20.10;1.00;;;;;;5088998;28;20866;-83
2021/08/02 10:52:42;;;;;;;1.73;1.00;;;19.90;1.00;;;;;;5091479;28;20401;-83
2021/08/02 10:55:20;;;;;;;2.07;1.20;;;20.10;1.00;;;;;;5074133;28;20440;-80
2021/08/02 10:58:00;;;;;;;1.50;1.00;;;20.20;1.00;;;;;;5088278;28;20394;-81
2021/08/02 11:00:34;;;;;;;1.47;1.20;;;20.30;1.00;;;;;;5085339;28;20694;-82
2021/08/02 11:03:07;;;;;;;2.30;1.63;;;20.30;1.00;;;;;;5091481;28;20454;-82
2021/08/02 11:05:36;;;;;;;1.30;0.90;;;20.30;1.00;;;;;;5087417;28;20517;-82
2021/08/02 11:08:05;;;;;;;3.20;1.47;;;20.70;1.00;;;;;;5090476;28;20411;-81
2021/08/02 11:10:40;;;;;;;2.70;1.00;;;21.10;1.00;;;;;;5086278;28;20466;-81
2021/08/02 11:13:28;;;;;;;1.73;1.00;;;21.20;1.00;;;;;;5088525;28;20388;-82
2021/08/02 11:15:56;;;;;;;1.93;1.33;;;21.20;1.00;;;;;;5087299;28;20455;-81
2021/08/02 11:18:29;;;;;;;2.80;1.07;;;21.00;1.00;;;;;;5085613;28;20804;-81
2021/08/02 11:20:59;;;;;;;2.30;1.10;;;21.20;1.00;;;;;;5085659;28;20473;-81
2021/08/02 11:23:38;;;;;;;2.23;1.23;;;21.00;1.00;;;;;;5087339;28;20415;-82
2021/08/02 11:26:12;;;;;;;3.80;1.60;;;21.30;1.00;;;;;;5085046;28;20484;-82
2021/08/02 11:28:42;;;;;;;2.93;1.43;;;21.30;1.00;;;;;;5065803;28;20442;-83
2021/08/02 11:31:11;;;;;;;2.63;1.27;;;21.60;1.00;;;;;;5081306;28;20445;-83
2021/08/02 11:33:42;;;;;;;2.23;0.90;;;21.80;1.00;;;;;;5065232;28;20846;-83
2021/08/02 11:36:16;;;;;;;3.00;1.00;;;21.80;1.00;;;;;;5083480;28;20393;-81
2021/08/02 11:38:52;;;;;;;1.97;0.90;;;21.90;1.00;;;;;;5083007;28;20401;-81
2021/08/02 11:41:28;;;;;;;4.93;1.43;;;21.70;1.00;;;;;;5084030;28;20404;-82
2021/08/02 11:43:59;;;;;;;5.10;1.83;;;21.20;1.00;;;;;;5065241;28;20396;-82
2021/08/02 11:46:36;;;;;;;2.90;1.47;;;21.20;1.00;;;;;;5065556;28;20472;-81
2021/08/02 11:49:06;;;;;;;3.43;1.23;;;21.40;1.00;;;;;;5102542;22;20404;31
2021/08/02 11:51:35;;;;;;;1.47;1.10;;;21.90;1.00;;;;;;5014115;28;20456;-81
2021/08/02 11:54:20;;;;;;;2.57;1.27;;;22.10;1.00;;;;;;4997589;28;20453;-81
2021/08/02 11:56:56;;;;;;;3.43;1.70;;;22.40;1.00;;;;;;4996612;28;20797;-80
2021/08/02 11:59:29;;;;;;;2.40;1.00;;;22.50;1.00;;;;;;4998211;28;20439;-79
2021/08/02 12:02:02;;;;;;;4.83;1.20;;;22.70;1.00;;;;;;4997272;28;20384;-80
2021/08/02 12:04:50;;;;;;;4.17;1.47;;;22.70;1.00;;;;;;4996421;28;20909;-79
2021/08/02 12:07:25;;;;;;;2.20;1.10;;;22.60;1.00;;;;;;4997458;28;20427;-80
2021/08/02 12:09:55;;;;;;;1.83;1.17;;;22.40;1.00;;;;;;4996138;28;20458;-80
2021/08/02 12:12:28;;;;;;;2.43;1.20;;;22.00;1.00;;;;;;4998143;28;20412;-80
2021/08/02 12:15:07;;;;;;;2.17;1.40;;;21.50;1.00;;;;;;5001071;28;20507;-79
2021/08/02 12:17:47;;;;;;;4.27;1.00;;;21.40;1.00;;;;;;5001396;28;20425;-79
2021/08/02 12:20:15;;;;;;;1.70;0.97;;;21.30;1.00;;;;;;5003571;28;20473;-79
2021/08/02 12:22:43;;;;;;;4.80;1.70;;;21.70;1.00;;;;;;5003777;28;20442;-79
2021/08/02 12:25:12;;;;;;;1.40;0.90;;;22.20;1.00;;;;;;5006223;28;20414;-80
2021/08/02 12:27:41;;;;;;;1.97;1.40;;;22.30;1.00;;;;;;4998261;28;20753;-80
2021/08/02 12:30:13;;;;;;;8.83;1.50;;;22.20;1.00;;;;;;4996365;28;20510;-79
2021/08/02 12:32:42;;;;;;;1.40;0.93;;;22.20;1.00;;;;;;4995428;28;20536;-81
2021/08/02 12:35:13;;;;;;;2.90;1.00;;;22.00;1.00;;;;;;4997370;28;20527;-79
2021/08/02 12:37:44;;;;;;;2.23;1.10;;;21.70;1.00;;;;;;4995128;28;20941;-79
2021/08/02 12:40:15;;;;;;;2.27;1.10;;;21.50;1.00;;;;;;4994995;28;20568;-80
2021/08/02 12:42:46;;;;;;;2.47;1.20;;;21.00;1.00;;;;;;4996375;28;20476;-80
2021/08/02 12:45:16;;;;;;;1.50;1.17;;;20.90;1.00;;;;;;4994137;28;20438;-80
2021/08/02 12:47:46;;;;;;;3.00;1.03;;;21.00;1.00;;;;;;4994792;28;20463;-79
2021/08/02 12:50:16;;;;;;;1.80;1.00;;;21.10;1.00;;;;;;4995347;28;20432;-79
2021/08/02 12:52:45;;;;;;;2.43;1.10;;;21.20;1.00;;;;;;4996007;28;20430;-78
2021/08/02 12:55:14;;;;;;;1.90;1.40;;;21.10;1.00;;;;;;4994019;28;20872;-78
2021/08/02 12:57:43;;;;;;;1.97;1.37;;;21.20;1.00;;;;;;4996732;28;20459;-79
2021/08/02 13:00:14;;;;;;;1.40;0.90;;;21.10;1.00;;;;;;4994347;28;20797;-79
2021/08/02 13:02:43;;;;;;;1.30;0.90;;;20.90;1.00;;;;;;4995073;28;20433;-79
2021/08/02 13:05:12;;;;;;;2.27;1.63;;;20.80;1.00;;;;;;4994441;28;20401;-79
2021/08/02 13:07:40;;;;;;;2.77;1.27;;;20.70;1.00;;;;;;4996508;28;20482;-79
2021/08/02 13:10:09;;;;;;;2.20;1.50;;;20.70;1.00;;;;;;4996107;28;20466;-80
2021/08/02 13:12:37;;;;;;;3.90;1.23;;;20.70;1.00;;;;;;5003180;28;20472;-79
2021/08/02 13:15:07;;;;;;;2.47;1.30;;;20.80;1.00;;;;;;5016490;28;20446;-79